sensor_id;sensor_type;location;lat;lon;timestamp;temperature;humidity
20973;DHT22;10645;52.370;13.314;2022-08-21T00:02:14;18.10;99.90
20973;DHT22;10645;52.370;13.314;2022-08-21T00:04:40;18.00;99.90
20973;DHT22;10645;52.370;13.314;2022-08-21T00:07:06;18.00;99.90
20973;DHT22;10645;52.370;13.314;2022-08-21T00:09:32;18.00;99.90
20973;DHT22;10645;52.370;13.314;2022-08-21T00:11:58;18.00;99.90
20973;DHT22;10645;52.370;13.314;2022-08-21T00:14:25;17.90;99.90
20973;DHT22;10645;52.370;13.314;2022-08-21T00:16:51;18.00;99.90
20973;DHT22;10645;52.370;13.314;2022-08-21T00:19:17;17.90;99.90
20973;DHT22;10645;52.370;13.314;2022-08-21T00:21:43;17.90;99.90
20973;DHT22;10645;52.370;13.314;2022-08-21T00:24:09;18.00;99.90
20973;DHT22;10645;52.370;13.314;2022-08-21T00:26:35;18.00;99.90
20973;DHT22;10645;52.370;13.314;2022-08-21T00:29:01;18.00;99.90
20973;DHT22;10645;52.370;13.314;2022-08-21T00:31:27;18.00;99.90
20973;DHT22;10645;52.370;13.314;2022-08-21T00:33:53;18.00;99.90
20973;DHT22;10645;52.370;13.314;2022-08-21T00:36:19;18.00;99.90
20973;DHT22;10645;52.370;13.314;2022-08-21T00:38:45;18.00;99.90
20973;DHT22;10645;52.370;13.314;2022-08-21T00:41:12;18.00;99.90
20973;DHT22;10645;52.370;13.314;2022-08-21T00:43:39;18.00;99.90
20973;DHT22;10645;52.370;13.314;2022-08-21T00:46:06;18.00;99.90
20973;DHT22;10645;52.370;13.314;2022-08-21T00:48:32;18.00;99.90
20973;DHT22;10645;52.370;13.314;2022-08-21T00:51:08;18.00;99.90
20973;DHT22;10645;52.370;13.314;2022-08-21T00:53:37;18.00;99.90
20973;DHT22;10645;52.370;13.314;2022-08-21T00:56:05;18.00;99.90
20973;DHT22;10645;52.370;13.314;2022-08-21T00:58:33;18.00;99.90
20973;DHT22;10645;52.370;13.314;2022-08-21T01:01:03;18.00;99.90
20973;DHT22;10645;52.370;13.314;2022-08-21T01:03:30;17.90;99.90
20973;DHT22;10645;52.370;13.314;2022-08-21T01:05:57;17.90;99.90
20973;DHT22;10645;52.370;13.314;2022-08-21T01:08:23;17.90;99.90
20973;DHT22;10645;52.370;13.314;2022-08-21T01:10:52;17.90;99.90
20973;DHT22;10645;52.370;13.314;2022-08-21T01:13:19;17.90;99.90
20973;DHT22;10645;52.370;13.314;2022-08-21T01:15:48;17.80;99.90
20973;DHT22;10645;52.370;13.314;2022-08-21T01:18:16;17.80;99.90
20973;DHT22;10645;52.370;13.314;2022-08-21T01:20:57;17.80;99.90
20973;DHT22;10645;52.370;13.314;2022-08-21T01:23:23;17.80;99.90
20973;DHT22;10645;52.370;13.314;2022-08-21T01:25:49;17.80;99.90
20973;DHT22;10645;52.370;13.314;2022-08-21T01:28:15;17.70;99.90
20973;DHT22;10645;52.370;13.314;2022-08-21T01:30:43;17.70;99.90
20973;DHT22;10645;52.370;13.314;2022-08-21T01:33:09;17.70;99.90
20973;DHT22;10645;52.370;13.314;2022-08-21T01:35:35;17.70;99.90
20973;DHT22;10645;52.370;13.314;2022-08-21T01:38:02;17.60;99.90
20973;DHT22;10645;52.370;13.314;2022-08-21T01:40:28;17.60;99.90
20973;DHT22;10645;52.370;13.314;2022-08-21T01:42:54;17.60;99.90
20973;DHT22;10645;52.370;13.314;2022-08-21T01:45:20;17.60;99.90
20973;DHT22;10645;52.370;13.314;2022-08-21T01:47:46;17.50;99.90
20973;DHT22;10645;52.370;13.314;2022-08-21T01:50:16;17.60;99.90
20973;DHT22;10645;52.370;13.314;2022-08-21T01:52:43;17.50;99.90
20973;DHT22;10645;52.370;13.314;2022-08-21T01:55:10;17.50;99.90
20973;DHT22;10645;52.370;13.314;2022-08-21T01:57:37;17.50;99.90
20973;DHT22;10645;52.370;13.314;2022-08-21T02:00:09;17.50;99.90
20973;DHT22;10645;52.370;13.314;2022-08-21T02:02:40;17.40;99.90
20973;DHT22;10645;52.370;13.314;2022-08-21T02:05:07;17.40;99.90
20973;DHT22;10645;52.370;13.314;2022-08-21T02:07:39;17.40;99.90
20973;DHT22;10645;52.370;13.314;2022-08-21T02:10:07;17.40;99.90
20973;DHT22;10645;52.370;13.314;2022-08-21T02:12:33;17.30;99.90
20973;DHT22;10645;52.370;13.314;2022-08-21T02:14:59;17.30;99.90
20973;DHT22;10645;52.370;13.314;2022-08-21T02:17:26;17.30;99.90
20973;DHT22;10645;52.370;13.314;2022-08-21T02:19:52;17.30;99.90
20973;DHT22;10645;52.370;13.314;2022-08-21T02:22:18;17.20;99.90
20973;DHT22;10645;52.370;13.314;2022-08-21T02:24:44;17.20;99.90
20973;DHT22;10645;52.370;13.314;2022-08-21T02:27:10;17.20;99.90
20973;DHT22;10645;52.370;13.314;2022-08-21T02:29:36;17.10;99.90
20973;DHT22;10645;52.370;13.314;2022-08-21T02:32:03;17.10;99.90
20973;DHT22;10645;52.370;13.314;2022-08-21T02:34:29;17.10;99.90
20973;DHT22;10645;52.370;13.314;2022-08-21T02:36:55;17.10;99.90
20973;DHT22;10645;52.370;13.314;2022-08-21T02:39:21;17.00;99.90
20973;DHT22;10645;52.370;13.314;2022-08-21T02:41:47;17.00;99.90
20973;DHT22;10645;52.370;13.314;2022-08-21T02:44:13;16.90;99.90
20973;DHT22;10645;52.370;13.314;2022-08-21T02:46:39;16.90;99.90
20973;DHT22;10645;52.370;13.314;2022-08-21T02:49:05;16.90;99.90
20973;DHT22;10645;52.370;13.314;2022-08-21T02:51:31;16.90;99.90
20973;DHT22;10645;52.370;13.314;2022-08-21T02:53:57;16.90;99.90
20973;DHT22;10645;52.370;13.314;2022-08-21T02:56:23;16.80;99.90
20973;DHT22;10645;52.370;13.314;2022-08-21T02:58:51;16.80;99.90
20973;DHT22;10645;52.370;13.314;2022-08-21T03:01:18;16.80;99.90
20973;DHT22;10645;52.370;13.314;2022-08-21T03:03:46;16.70;99.90
20973;DHT22;10645;52.370;13.314;2022-08-21T03:06:16;16.70;99.90
20973;DHT22;10645;52.370;13.314;2022-08-21T03:08:43;16.70;99.90
20973;DHT22;10645;52.370;13.314;2022-08-21T03:11:11;16.60;99.90
20973;DHT22;10645;52.370;13.314;2022-08-21T03:13:38;16.60;99.90
20973;DHT22;10645;52.370;13.314;2022-08-21T03:16:05;16.60;99.90
20973;DHT22;10645;52.370;13.314;2022-08-21T03:18:32;16.50;99.90
20973;DHT22;10645;52.370;13.314;2022-08-21T03:20:58;16.50;99.90
20973;DHT22;10645;52.370;13.314;2022-08-21T03:23:24;16.50;99.90
20973;DHT22;10645;52.370;13.314;2022-08-21T03:25:50;16.40;99.90
20973;DHT22;10645;52.370;13.314;2022-08-21T03:28:20;16.40;99.90
20973;DHT22;10645;52.370;13.314;2022-08-21T03:30:49;16.40;99.90
20973;DHT22;10645;52.370;13.314;2022-08-21T03:33:16;16.30;99.90
20973;DHT22;10645;52.370;13.314;2022-08-21T03:35:45;16.30;99.90
20973;DHT22;10645;52.370;13.314;2022-08-21T03:38:13;16.30;99.90
20973;DHT22;10645;52.370;13.314;2022-08-21T03:40:39;16.30;99.90
20973;DHT22;10645;52.370;13.314;2022-08-21T03:43:05;16.20;99.90
20973;DHT22;10645;52.370;13.314;2022-08-21T03:45:35;16.20;99.90
20973;DHT22;10645;52.370;13.314;2022-08-21T03:48:03;16.20;99.90
20973;DHT22;10645;52.370;13.314;2022-08-21T03:50:33;16.20;99.90
20973;DHT22;10645;52.370;13.314;2022-08-21T03:52:59;16.10;99.90
20973;DHT22;10645;52.370;13.314;2022-08-21T03:55:26;16.10;99.90
20973;DHT22;10645;52.370;13.314;2022-08-21T03:57:52;16.10;99.90
20973;DHT22;10645;52.370;13.314;2022-08-21T04:00:20;16.00;99.90
20973;DHT22;10645;52.370;13.314;2022-08-21T04:02:46;16.00;99.90
20973;DHT22;10645;52.370;13.314;2022-08-21T04:05:14;16.00;99.90
20973;DHT22;10645;52.370;13.314;2022-08-21T04:07:40;15.90;99.90
20973;DHT22;10645;52.370;13.314;2022-08-21T04:10:07;15.90;99.90
20973;DHT22;10645;52.370;13.314;2022-08-21T04:12:33;15.90;99.90
20973;DHT22;10645;52.370;13.314;2022-08-21T04:14:59;15.90;99.90
20973;DHT22;10645;52.370;13.314;2022-08-21T04:17:27;15.80;99.90
20973;DHT22;10645;52.370;13.314;2022-08-21T04:19:53;15.80;99.90
20973;DHT22;10645;52.370;13.314;2022-08-21T04:22:20;15.80;99.90
20973;DHT22;10645;52.370;13.314;2022-08-21T04:24:46;15.80;99.90
20973;DHT22;10645;52.370;13.314;2022-08-21T04:27:12;15.80;99.90
20973;DHT22;10645;52.370;13.314;2022-08-21T04:29:38;15.80;99.90
20973;DHT22;10645;52.370;13.314;2022-08-21T04:32:05;15.80;99.90
20973;DHT22;10645;52.370;13.314;2022-08-21T04:34:31;15.80;99.90
20973;DHT22;10645;52.370;13.314;2022-08-21T04:36:57;15.80;99.90
20973;DHT22;10645;52.370;13.314;2022-08-21T04:39:23;15.80;99.90
20973;DHT22;10645;52.370;13.314;2022-08-21T04:41:49;15.80;99.90
20973;DHT22;10645;52.370;13.314;2022-08-21T04:44:16;15.90;99.90
20973;DHT22;10645;52.370;13.314;2022-08-21T04:46:42;15.80;99.90
20973;DHT22;10645;52.370;13.314;2022-08-21T04:49:08;15.90;99.90
20973;DHT22;10645;52.370;13.314;2022-08-21T04:51:37;15.90;99.90
20973;DHT22;10645;52.370;13.314;2022-08-21T04:54:18;15.90;99.90
20973;DHT22;10645;52.370;13.314;2022-08-21T04:56:49;15.90;99.90
20973;DHT22;10645;52.370;13.314;2022-08-21T04:59:21;16.00;99.90
20973;DHT22;10645;52.370;13.314;2022-08-21T05:01:49;16.00;99.90
20973;DHT22;10645;52.370;13.314;2022-08-21T05:04:18;16.00;99.90
20973;DHT22;10645;52.370;13.314;2022-08-21T05:06:47;16.00;99.90
20973;DHT22;10645;52.370;13.314;2022-08-21T05:09:16;16.00;99.90
20973;DHT22;10645;52.370;13.314;2022-08-21T05:11:43;16.10;99.90
20973;DHT22;10645;52.370;13.314;2022-08-21T05:14:11;16.10;99.90
20973;DHT22;10645;52.370;13.314;2022-08-21T05:16:37;16.10;99.90
20973;DHT22;10645;52.370;13.314;2022-08-21T05:19:05;16.10;99.90
20973;DHT22;10645;52.370;13.314;2022-08-21T05:21:32;16.10;99.90
20973;DHT22;10645;52.370;13.314;2022-08-21T05:23:58;16.10;99.90
20973;DHT22;10645;52.370;13.314;2022-08-21T05:26:24;16.20;99.90
20973;DHT22;10645;52.370;13.314;2022-08-21T05:28:51;16.30;99.90
20973;DHT22;10645;52.370;13.314;2022-08-21T05:31:18;16.30;99.90
20973;DHT22;10645;52.370;13.314;2022-08-21T05:33:44;16.30;99.90
20973;DHT22;10645;52.370;13.314;2022-08-21T05:36:10;16.30;99.90
20973;DHT22;10645;52.370;13.314;2022-08-21T05:38:36;16.40;99.90
20973;DHT22;10645;52.370;13.314;2022-08-21T05:41:02;16.40;99.90
20973;DHT22;10645;52.370;13.314;2022-08-21T05:43:28;16.50;99.90
20973;DHT22;10645;52.370;13.314;2022-08-21T05:45:54;16.50;99.90
20973;DHT22;10645;52.370;13.314;2022-08-21T05:48:23;16.50;99.90
20973;DHT22;10645;52.370;13.314;2022-08-21T05:50:50;16.60;99.90
20973;DHT22;10645;52.370;13.314;2022-08-21T05:53:19;16.60;99.90
20973;DHT22;10645;52.370;13.314;2022-08-21T05:55:46;16.60;99.90
20973;DHT22;10645;52.370;13.314;2022-08-21T05:58:17;16.60;99.90
20973;DHT22;10645;52.370;13.314;2022-08-21T06:00:44;16.70;99.90
20973;DHT22;10645;52.370;13.314;2022-08-21T06:03:16;16.70;99.90
20973;DHT22;10645;52.370;13.314;2022-08-21T06:05:43;16.70;99.90
20973;DHT22;10645;52.370;13.314;2022-08-21T06:08:09;16.80;99.90
20973;DHT22;10645;52.370;13.314;2022-08-21T06:10:35;16.80;99.90
20973;DHT22;10645;52.370;13.314;2022-08-21T06:13:01;16.80;99.90
20973;DHT22;10645;52.370;13.314;2022-08-21T06:15:27;16.80;99.90
20973;DHT22;10645;52.370;13.314;2022-08-21T06:17:54;16.90;99.90
20973;DHT22;10645;52.370;13.314;2022-08-21T06:20:20;17.00;99.90
20973;DHT22;10645;52.370;13.314;2022-08-21T06:22:46;17.00;99.90
20973;DHT22;10645;52.370;13.314;2022-08-21T06:25:12;17.00;99.90
20973;DHT22;10645;52.370;13.314;2022-08-21T06:27:39;17.00;99.90
20973;DHT22;10645;52.370;13.314;2022-08-21T06:30:06;17.00;99.90
20973;DHT22;10645;52.370;13.314;2022-08-21T06:32:32;17.00;99.90
20973;DHT22;10645;52.370;13.314;2022-08-21T06:34:58;17.00;99.90
20973;DHT22;10645;52.370;13.314;2022-08-21T06:37:24;17.00;99.90
20973;DHT22;10645;52.370;13.314;2022-08-21T06:39:50;17.00;99.90
20973;DHT22;10645;52.370;13.314;2022-08-21T06:42:17;17.10;99.90
20973;DHT22;10645;52.370;13.314;2022-08-21T06:44:43;17.20;99.90
20973;DHT22;10645;52.370;13.314;2022-08-21T06:47:10;17.20;99.90
20973;DHT22;10645;52.370;13.314;2022-08-21T06:49:36;17.30;99.90
20973;DHT22;10645;52.370;13.314;2022-08-21T06:52:02;17.40;99.90
20973;DHT22;10645;52.370;13.314;2022-08-21T06:54:29;17.40;99.90
20973;DHT22;10645;52.370;13.314;2022-08-21T06:56:56;17.40;99.90
20973;DHT22;10645;52.370;13.314;2022-08-21T06:59:22;17.50;99.90
20973;DHT22;10645;52.370;13.314;2022-08-21T07:01:48;17.70;99.90
20973;DHT22;10645;52.370;13.314;2022-08-21T07:04:14;17.80;99.90
20973;DHT22;10645;52.370;13.314;2022-08-21T07:06:40;17.80;99.90
20973;DHT22;10645;52.370;13.314;2022-08-21T07:09:06;17.80;99.90
20973;DHT22;10645;52.370;13.314;2022-08-21T07:11:35;17.90;99.90
20973;DHT22;10645;52.370;13.314;2022-08-21T07:14:01;18.00;99.90
20973;DHT22;10645;52.370;13.314;2022-08-21T07:16:27;18.10;99.90
20973;DHT22;10645;52.370;13.314;2022-08-21T07:18:53;18.30;99.90
20973;DHT22;10645;52.370;13.314;2022-08-21T07:21:19;18.30;99.90
20973;DHT22;10645;52.370;13.314;2022-08-21T07:23:47;18.30;99.90
20973;DHT22;10645;52.370;13.314;2022-08-21T07:26:16;18.30;99.90
20973;DHT22;10645;52.370;13.314;2022-08-21T07:28:43;18.40;99.90
20973;DHT22;10645;52.370;13.314;2022-08-21T07:31:13;18.50;99.90
20973;DHT22;10645;52.370;13.314;2022-08-21T07:33:39;18.50;99.90
20973;DHT22;10645;52.370;13.314;2022-08-21T07:36:06;18.60;99.90
20973;DHT22;10645;52.370;13.314;2022-08-21T07:38:32;18.70;99.90
20973;DHT22;10645;52.370;13.314;2022-08-21T07:41:00;18.80;99.90
20973;DHT22;10645;52.370;13.314;2022-08-21T07:43:28;18.80;99.90
20973;DHT22;10645;52.370;13.314;2022-08-21T07:45:55;19.00;99.90
20973;DHT22;10645;52.370;13.314;2022-08-21T07:48:21;19.20;99.90
20973;DHT22;10645;52.370;13.314;2022-08-21T07:50:48;19.20;99.90
20973;DHT22;10645;52.370;13.314;2022-08-21T07:53:15;19.40;99.90
20973;DHT22;10645;52.370;13.314;2022-08-21T07:55:41;19.40;99.90
20973;DHT22;10645;52.370;13.314;2022-08-21T07:58:07;19.40;99.90
20973;DHT22;10645;52.370;13.314;2022-08-21T08:00:34;19.50;99.90
20973;DHT22;10645;52.370;13.314;2022-08-21T08:03:00;19.40;99.90
20973;DHT22;10645;52.370;13.314;2022-08-21T08:05:29;19.40;99.90
20973;DHT22;10645;52.370;13.314;2022-08-21T08:07:56;19.40;99.90
20973;DHT22;10645;52.370;13.314;2022-08-21T08:10:22;19.50;99.90
20973;DHT22;10645;52.370;13.314;2022-08-21T08:12:49;19.60;99.90
20973;DHT22;10645;52.370;13.314;2022-08-21T08:15:21;19.70;99.90
20973;DHT22;10645;52.370;13.314;2022-08-21T08:17:47;19.80;99.90
20973;DHT22;10645;52.370;13.314;2022-08-21T08:20:15;19.80;99.90
20973;DHT22;10645;52.370;13.314;2022-08-21T08:22:41;20.00;99.90
20973;DHT22;10645;52.370;13.314;2022-08-21T08:25:10;20.10;99.90
20973;DHT22;10645;52.370;13.314;2022-08-21T08:27:37;20.20;99.90
20973;DHT22;10645;52.370;13.314;2022-08-21T08:30:05;20.30;99.90
20973;DHT22;10645;52.370;13.314;2022-08-21T08:32:31;20.10;99.90
20973;DHT22;10645;52.370;13.314;2022-08-21T08:34:57;20.10;99.90
20973;DHT22;10645;52.370;13.314;2022-08-21T08:37:23;20.20;99.90
20973;DHT22;10645;52.370;13.314;2022-08-21T08:39:49;20.10;99.90
20973;DHT22;10645;52.370;13.314;2022-08-21T08:42:33;20.10;99.90
20973;DHT22;10645;52.370;13.314;2022-08-21T08:47:36;20.10;99.90
20973;DHT22;10645;52.370;13.314;2022-08-21T08:50:07;20.20;99.90
20973;DHT22;10645;52.370;13.314;2022-08-21T08:52:39;20.30;99.90
20973;DHT22;10645;52.370;13.314;2022-08-21T08:55:09;20.40;99.90
20973;DHT22;10645;52.370;13.314;2022-08-21T08:57:39;20.50;99.90
20973;DHT22;10645;52.370;13.314;2022-08-21T09:00:10;20.50;99.90
20973;DHT22;10645;52.370;13.314;2022-08-21T09:02:41;20.50;99.90
20973;DHT22;10645;52.370;13.314;2022-08-21T09:05:19;20.50;99.90
20973;DHT22;10645;52.370;13.314;2022-08-21T09:08:04;20.50;99.90
20973;DHT22;10645;52.370;13.314;2022-08-21T09:14:00;20.70;99.90
20973;DHT22;10645;52.370;13.314;2022-08-21T09:19:49;20.80;99.90
20973;DHT22;10645;52.370;13.314;2022-08-21T09:27:42;21.00;99.90
20973;DHT22;10645;52.370;13.314;2022-08-21T09:30:08;21.00;99.90
20973;DHT22;10645;52.370;13.314;2022-08-21T09:32:37;21.10;99.90
20973;DHT22;10645;52.370;13.314;2022-08-21T09:35:14;21.00;99.90
20973;DHT22;10645;52.370;13.314;2022-08-21T09:37:49;21.00;99.90
20973;DHT22;10645;52.370;13.314;2022-08-21T09:40:23;21.00;99.90
20973;DHT22;10645;52.370;13.314;2022-08-21T09:43:03;21.10;99.90
20973;DHT22;10645;52.370;13.314;2022-08-21T09:45:30;21.30;99.90
20973;DHT22;10645;52.370;13.314;2022-08-21T09:48:08;21.40;99.90
20973;DHT22;10645;52.370;13.314;2022-08-21T09:50:34;21.50;99.90
20973;DHT22;10645;52.370;13.314;2022-08-21T09:53:00;21.60;99.90
20973;DHT22;10645;52.370;13.314;2022-08-21T09:55:38;21.50;99.90
20973;DHT22;10645;52.370;13.314;2022-08-21T09:58:31;21.60;99.90
20973;DHT22;10645;52.370;13.314;2022-08-21T10:01:00;21.80;99.90
20973;DHT22;10645;52.370;13.314;2022-08-21T10:03:27;21.90;99.90
20973;DHT22;10645;52.370;13.314;2022-08-21T10:06:02;22.10;99.90
20973;DHT22;10645;52.370;13.314;2022-08-21T10:08:33;22.20;99.90
20973;DHT22;10645;52.370;13.314;2022-08-21T10:11:07;22.40;99.90
20973;DHT22;10645;52.370;13.314;2022-08-21T10:13:55;22.80;99.90
20973;DHT22;10645;52.370;13.314;2022-08-21T10:16:44;22.90;99.90
20973;DHT22;10645;52.370;13.314;2022-08-21T10:19:23;23.00;99.90
20973;DHT22;10645;52.370;13.314;2022-08-21T10:22:19;23.10;99.90
20973;DHT22;10645;52.370;13.314;2022-08-21T10:25:04;23.00;99.90
20973;DHT22;10645;52.370;13.314;2022-08-21T10:30:14;22.70;98.40
20973;DHT22;10645;52.370;13.314;2022-08-21T10:32:47;22.60;98.40
20973;DHT22;10645;52.370;13.314;2022-08-21T10:40:42;22.60;99.90
20973;DHT22;10645;52.370;13.314;2022-08-21T10:43:34;22.80;97.60
20973;DHT22;10645;52.370;13.314;2022-08-21T10:48:57;23.40;97.40
20973;DHT22;10645;52.370;13.314;2022-08-21T10:54:51;23.20;93.50
20973;DHT22;10645;52.370;13.314;2022-08-21T10:57:27;23.20;96.60
20973;DHT22;10645;52.370;13.314;2022-08-21T11:00:22;23.30;95.90
20973;DHT22;10645;52.370;13.314;2022-08-21T11:02:50;23.50;96.00
20973;DHT22;10645;52.370;13.314;2022-08-21T11:05:25;23.80;94.60
20973;DHT22;10645;52.370;13.314;2022-08-21T11:07:57;24.00;94.90
20973;DHT22;10645;52.370;13.314;2022-08-21T11:10:28;23.80;95.50
20973;DHT22;10645;52.370;13.314;2022-08-21T11:13:01;23.90;96.10
20973;DHT22;10645;52.370;13.314;2022-08-21T11:15:44;24.00;96.20
20973;DHT22;10645;52.370;13.314;2022-08-21T11:18:27;24.00;95.40
20973;DHT22;10645;52.370;13.314;2022-08-21T11:29:46;23.80;92.70
20973;DHT22;10645;52.370;13.314;2022-08-21T11:35:02;23.70;92.00
20973;DHT22;10645;52.370;13.314;2022-08-21T11:41:53;23.70;92.40
20973;DHT22;10645;52.370;13.314;2022-08-21T11:47:18;23.60;93.70
20973;DHT22;10645;52.370;13.314;2022-08-21T11:52:32;24.00;92.40
20973;DHT22;10645;52.370;13.314;2022-08-21T11:55:06;24.20;93.80
20973;DHT22;10645;52.370;13.314;2022-08-21T11:57:56;24.60;94.10
20973;DHT22;10645;52.370;13.314;2022-08-21T12:00:28;24.70;93.90
20973;DHT22;10645;52.370;13.314;2022-08-21T12:03:07;25.00;93.70
20973;DHT22;10645;52.370;13.314;2022-08-21T12:05:42;24.90;93.70
20973;DHT22;10645;52.370;13.314;2022-08-21T12:11:10;24.90;91.10
20973;DHT22;10645;52.370;13.314;2022-08-21T12:14:00;25.10;92.20
20973;DHT22;10645;52.370;13.314;2022-08-21T12:16:35;25.20;90.70
20973;DHT22;10645;52.370;13.314;2022-08-21T12:19:13;25.20;90.70
20973;DHT22;10645;52.370;13.314;2022-08-21T12:27:01;25.10;91.20
20973;DHT22;10645;52.370;13.314;2022-08-21T12:29:38;25.40;90.70
20973;DHT22;10645;52.370;13.314;2022-08-21T12:34:42;25.80;90.70
20973;DHT22;10645;52.370;13.314;2022-08-21T12:40:23;25.80;90.40
20973;DHT22;10645;52.370;13.314;2022-08-21T12:42:53;26.00;90.50
20973;DHT22;10645;52.370;13.314;2022-08-21T12:45:28;25.80;90.50
20973;DHT22;10645;52.370;13.314;2022-08-21T12:48:04;26.00;90.40
20973;DHT22;10645;52.370;13.314;2022-08-21T12:50:37;25.60;89.00
20973;DHT22;10645;52.370;13.314;2022-08-21T12:53:23;25.40;88.30
20973;DHT22;10645;52.370;13.314;2022-08-21T12:55:50;25.30;91.10
20973;DHT22;10645;52.370;13.314;2022-08-21T12:58:19;25.50;90.70
20973;DHT22;10645;52.370;13.314;2022-08-21T13:01:03;25.50;89.70
20973;DHT22;10645;52.370;13.314;2022-08-21T13:03:30;25.20;90.50
20973;DHT22;10645;52.370;13.314;2022-08-21T13:05:58;25.10;90.50
20973;DHT22;10645;52.370;13.314;2022-08-21T13:08:26;25.10;91.20
20973;DHT22;10645;52.370;13.314;2022-08-21T13:11:01;24.90;91.80
20973;DHT22;10645;52.370;13.314;2022-08-21T13:13:28;24.90;91.50
20973;DHT22;10645;52.370;13.314;2022-08-21T13:15:59;24.90;90.80
20973;DHT22;10645;52.370;13.314;2022-08-21T13:18:30;24.80;90.80
20973;DHT22;10645;52.370;13.314;2022-08-21T13:21:26;24.40;92.40
20973;DHT22;10645;52.370;13.314;2022-08-21T13:23:52;24.30;92.60
20973;DHT22;10645;52.370;13.314;2022-08-21T13:26:21;24.60;92.10
20973;DHT22;10645;52.370;13.314;2022-08-21T13:28:48;24.90;91.20
20973;DHT22;10645;52.370;13.314;2022-08-21T13:31:22;24.90;92.00
20973;DHT22;10645;52.370;13.314;2022-08-21T13:33:50;25.10;91.60
20973;DHT22;10645;52.370;13.314;2022-08-21T13:36:25;25.20;91.50
20973;DHT22;10645;52.370;13.314;2022-08-21T13:38:53;25.20;91.30
20973;DHT22;10645;52.370;13.314;2022-08-21T13:41:24;25.00;90.40
20973;DHT22;10645;52.370;13.314;2022-08-21T13:44:01;24.60;90.60
20973;DHT22;10645;52.370;13.314;2022-08-21T13:46:31;24.50;92.50
20973;DHT22;10645;52.370;13.314;2022-08-21T13:48:59;24.40;92.20
20973;DHT22;10645;52.370;13.314;2022-08-21T13:51:26;24.60;93.90
20973;DHT22;10645;52.370;13.314;2022-08-21T13:53:53;24.40;92.10
20973;DHT22;10645;52.370;13.314;2022-08-21T13:56:31;24.40;93.80
20973;DHT22;10645;52.370;13.314;2022-08-21T13:58:58;24.30;92.70
20973;DHT22;10645;52.370;13.314;2022-08-21T14:01:38;24.40;93.40
20973;DHT22;10645;52.370;13.314;2022-08-21T14:04:30;24.40;92.60
20973;DHT22;10645;52.370;13.314;2022-08-21T14:06:57;24.20;92.50
20973;DHT22;10645;52.370;13.314;2022-08-21T14:09:41;24.30;93.10
20973;DHT22;10645;52.370;13.314;2022-08-21T14:12:38;24.50;92.20
20973;DHT22;10645;52.370;13.314;2022-08-21T14:15:07;24.70;91.20
20973;DHT22;10645;52.370;13.314;2022-08-21T14:17:35;24.90;92.20
20973;DHT22;10645;52.370;13.314;2022-08-21T14:20:08;24.80;91.90
20973;DHT22;10645;52.370;13.314;2022-08-21T14:27:29;24.50;94.10
20973;DHT22;10645;52.370;13.314;2022-08-21T14:30:20;24.10;92.90
20973;DHT22;10645;52.370;13.314;2022-08-21T14:32:47;23.80;94.20
20973;DHT22;10645;52.370;13.314;2022-08-21T14:35:14;23.70;94.00
20973;DHT22;10645;52.370;13.314;2022-08-21T14:37:45;23.60;93.40
20973;DHT22;10645;52.370;13.314;2022-08-21T14:40:12;23.80;93.60
20973;DHT22;10645;52.370;13.314;2022-08-21T14:42:40;23.90;93.60
20973;DHT22;10645;52.370;13.314;2022-08-21T14:45:19;24.00;92.70
20973;DHT22;10645;52.370;13.314;2022-08-21T14:47:46;23.80;93.90
20973;DHT22;10645;52.370;13.314;2022-08-21T14:50:12;23.80;92.70
20973;DHT22;10645;52.370;13.314;2022-08-21T14:52:39;23.70;93.90
20973;DHT22;10645;52.370;13.314;2022-08-21T14:55:07;23.70;95.20
20973;DHT22;10645;52.370;13.314;2022-08-21T14:57:34;23.50;93.40
20973;DHT22;10645;52.370;13.314;2022-08-21T15:00:00;23.40;93.50
20973;DHT22;10645;52.370;13.314;2022-08-21T15:02:26;23.30;94.00
20973;DHT22;10645;52.370;13.314;2022-08-21T15:04:53;23.30;94.00
20973;DHT22;10645;52.370;13.314;2022-08-21T15:07:19;23.30;94.80
20973;DHT22;10645;52.370;13.314;2022-08-21T15:09:45;23.40;94.90
20973;DHT22;10645;52.370;13.314;2022-08-21T15:12:13;23.40;94.90
20973;DHT22;10645;52.370;13.314;2022-08-21T15:14:40;23.50;95.80
20973;DHT22;10645;52.370;13.314;2022-08-21T15:17:07;23.60;96.00
20973;DHT22;10645;52.370;13.314;2022-08-21T15:19:34;23.60;94.90
20973;DHT22;10645;52.370;13.314;2022-08-21T15:22:00;23.60;94.50
20973;DHT22;10645;52.370;13.314;2022-08-21T15:24:27;23.70;96.10
20973;DHT22;10645;52.370;13.314;2022-08-21T15:26:54;23.70;95.50
20973;DHT22;10645;52.370;13.314;2022-08-21T15:29:21;23.70;94.00
20973;DHT22;10645;52.370;13.314;2022-08-21T15:31:56;23.80;94.70
20973;DHT22;10645;52.370;13.314;2022-08-21T15:34:23;23.70;93.30
20973;DHT22;10645;52.370;13.314;2022-08-21T15:36:50;23.50;94.20
20973;DHT22;10645;52.370;13.314;2022-08-21T15:39:16;23.40;95.00
20973;DHT22;10645;52.370;13.314;2022-08-21T15:41:43;23.20;95.10
20973;DHT22;10645;52.370;13.314;2022-08-21T15:44:11;23.20;94.30
20973;DHT22;10645;52.370;13.314;2022-08-21T15:46:38;23.20;95.30
20973;DHT22;10645;52.370;13.314;2022-08-21T15:49:05;23.10;94.10
20973;DHT22;10645;52.370;13.314;2022-08-21T15:51:31;23.10;94.00
20973;DHT22;10645;52.370;13.314;2022-08-21T15:53:57;23.10;93.50
20973;DHT22;10645;52.370;13.314;2022-08-21T15:56:26;23.00;94.20
20973;DHT22;10645;52.370;13.314;2022-08-21T15:58:59;23.00;95.20
20973;DHT22;10645;52.370;13.314;2022-08-21T16:01:26;23.00;94.50
20973;DHT22;10645;52.370;13.314;2022-08-21T16:03:53;23.00;94.20
20973;DHT22;10645;52.370;13.314;2022-08-21T16:06:20;22.90;94.60
20973;DHT22;10645;52.370;13.314;2022-08-21T16:08:46;22.90;94.60
20973;DHT22;10645;52.370;13.314;2022-08-21T16:11:14;22.80;93.80
20973;DHT22;10645;52.370;13.314;2022-08-21T16:13:43;22.80;94.90
20973;DHT22;10645;52.370;13.314;2022-08-21T16:16:12;22.80;95.10
20973;DHT22;10645;52.370;13.314;2022-08-21T16:18:40;22.70;95.30
20973;DHT22;10645;52.370;13.314;2022-08-21T16:21:07;22.70;95.80
20973;DHT22;10645;52.370;13.314;2022-08-21T16:23:34;22.70;96.20
20973;DHT22;10645;52.370;13.314;2022-08-21T16:26:02;22.60;94.90
20973;DHT22;10645;52.370;13.314;2022-08-21T16:28:29;22.60;96.00
20973;DHT22;10645;52.370;13.314;2022-08-21T16:30:55;22.50;96.00
20973;DHT22;10645;52.370;13.314;2022-08-21T16:33:32;22.40;95.80
20973;DHT22;10645;52.370;13.314;2022-08-21T16:35:59;22.30;95.90
20973;DHT22;10645;52.370;13.314;2022-08-21T16:38:26;22.30;97.00